Latest Coastal Weather Observations for Cape Moreton

IDQ60701

Issued at 10:42 pm EST Wednesday 29 June 2016 (issued every 10 minutes, with the page automatically refreshed every 10 minutes)

About coastal observations | Map of coastal stations | Coastal observations for QLD | Marine services | Other Formats
Station Details ID: 040043 Name: CAPE MORETON LIGHTHOUSE Lat: -27.03 Lon: 153.47 Height: 99.9 m
Data from the previous 72 hours. | See also: Recent months at Cape Moreton
Date/Time
EST
Temp
°C
Wind Pressure Rain since
9am
mm
Weather Cloud Vis
km
Sea
Height
m
Swell
Dir  Spd
kts
Gust
kts
hPa Trend Height
m
Period
s
Dir
29/10:30pm 17.2 SE 17 21 1024.8 - 0.0 - - - - - - -
29/10:00pm 17.2 SE 17 21 1024.6 - 0.0 - - - - - - -
29/09:30pm 17.3 SE 17 21 1024.6 - 0.0 - - - - - - -
29/09:00pm 16.4 S 11 15 1024.9 - 0.0 - - - - - - -
29/08:30pm 16.7 S 12 15 1025.0 - 0.0 - - - - - - -
29/08:00pm 17.5 SE 15 21 1025.0 - 0.0 - - - - - - -
29/07:30pm 17.5 SE 19 23 1024.8 - 0.0 - - - - - - -
29/07:00pm 17.3 SE 19 23 1024.8 - 0.0 - - - - - - -
29/06:30pm 17.3 SE 20 24 1024.6 - 0.0 - - - - - - -
29/06:00pm 17.2 SE 19 24 1024.4 - 0.0 - - - - - - -
29/05:30pm 17.4 SE 20 25 1024.0 - 0.0 - - - - - - -
29/05:00pm 17.4 SE 18 22 1024.0 - 0.0 - - - - - - -
29/04:30pm 17.5 SSE 13 17 1023.9 - 0.0 - - - - - - -
29/04:00pm 17.6 SSE 15 21 1023.8 - 0.0 - - - - - - -
29/03:30pm 17.6 SSE 16 22 1023.7 - 0.0 - - - - - - -
29/03:00pm 17.7 S 11 15 1023.4 - 0.0 - - - - - - -
29/02:30pm 17.8 S 11 15 1023.3 - 0.0 - - - - - - -
29/02:00pm 17.7 SSE 13 18 1023.2 - 0.0 - - - - - - -
29/01:30pm 17.8 SSE 13 17 1023.3 - 0.0 - - - - - - -
29/01:00pm 17.7 SSE 13 18 1023.5 - 0.0 - - - - - - -
29/12:30pm 17.8 S 12 18 1024.0 - 0.0 - - - - - - -
29/12:00pm 17.6 S 13 18 1024.4 - 0.0 - - - - - - -
29/11:30am 17.3 S 14 17 1024.7 - 0.0 - - - - - - -
29/11:00am 17.0 S 15 21 1025.1 - 0.0 - - - - - - -
29/10:30am 16.3 S 15 19 1025.3 - 0.0 - - - - - - -
29/10:00am 16.3 S 14 18 1025.4 - 0.0 - - - - - - -
29/09:30am 15.9 S 14 20 1025.5 - 0.0 - - - - - - -
29/09:00am 15.5 S 15 22 1025.3 - 0.0 - - - - - - -
29/08:30am 15.2 SSW 14 18 1025.2 - 0.0 - - - - - - -
29/08:00am 14.5 SSW 14 20 1024.9 - 0.0 - - - - - - -
29/07:30am 14.0 SSW 14 19 1024.8 - 0.0 - - - - - - -
29/07:00am 13.1 SSW 14 17 1024.6 - 0.0 - - - - - - -
29/06:30am 13.1 SW 13 18 1024.4 - 0.0 - - - - - - -
29/06:00am 12.6 SW 12 16 1024.1 - 0.0 - - - - - - -
29/05:30am 12.4 SW 12 17 1023.8 - 0.0 - - - - - - -
29/05:00am 12.3 SW 13 16 1023.7 - 0.0 - - - - - - -
29/04:30am 12.5 SW 14 18 1023.3 - 0.0 - - - - - - -
29/04:00am 12.6 SW 13 17 1023.1 - 0.0 - - - - - - -
29/03:30am 12.5 SW 14 18 1023.0 - 0.0 - - - - - - -
29/03:00am 12.4 SW 15 19 1022.7 - 0.0 - - - - - - -
29/02:30am 12.2 SW 15 19 1022.8 - 0.0 - - - - - - -
29/02:00am 12.3 SW 14 19 1023.1 - 0.0 - - - - - - -
29/01:30am 12.3 SW 14 18 1023.3 - 0.0 - - - - - - -
29/01:00am 12.3 SW 13 17 1023.3 - 0.0 - - - - - - -
29/12:30am 12.2 SW 14 18 1023.4 - 0.0 - - - - - - -
29/12:00am 12.4 SW 13 17 1023.6 - 0.0 - - - - - - -
 
Date/Time
EST
Temp
°C
Wind Pressure Rain since
9am
mm
Weather Cloud Vis
km
Sea
Height
m
Swell
Dir  Spd
kts
Gust
kts
hPa Trend Height
m
Period
s
Dir
28/11:30pm 12.7 SW 15 20 1023.5 - 0.0 - - - - - - -
28/11:00pm 12.7 SW 14 19 1023.5 - 0.0 - - - - - - -
28/10:30pm 12.8 SW 14 18 1023.4 - 0.0 - - - - - - -
28/10:00pm 12.6 SW 13 17 1023.3 - 0.0 - - - - - - -
28/09:30pm 12.6 SW 13 17 1023.2 - 0.0 - - - - - - -
28/09:00pm 13.0 WSW 14 19 1023.2 - 0.0 - - - - - - -
28/08:30pm 13.4 WSW 14 18 1023.1 - 0.0 - - - - - - -
28/08:00pm 13.7 WSW 13 16 1023.1 - 0.0 - - - - - - -
28/07:30pm 13.9 WSW 14 18 1022.9 - 0.0 - - - - - - -
28/07:00pm 14.4 WSW 14 17 1022.6 - 0.0 - - - - - - -
28/06:30pm 14.0 WSW 11 15 1022.3 - 0.0 - - - - - - -
28/06:00pm 14.1 WSW 12 14 1021.8 - 0.0 - - - - - - -
28/05:30pm 14.3 WSW 10 13 1021.3 - 0.0 - - - - - - -
28/05:00pm 14.6 WSW 10 13 1020.9 - 0.0 - - - - - - -
28/04:30pm 15.4 WSW 9 14 1020.6 - 0.0 - - - - - - -
28/04:00pm 15.9 SW 11 16 1020.2 - 0.0 - - - - - - -
28/03:30pm 16.0 WSW 11 15 1019.9 - 0.0 - - - - - - -
28/03:00pm 16.4 SW 12 19 1019.9 - 0.0 - - - - - - -
28/02:30pm 16.4 WSW 13 19 1019.3 - 0.0 - - - - - - -
28/02:00pm 16.0 WSW 13 17 1019.2 - 0.0 - - - - - - -
28/01:30pm 15.5 WSW 12 19 1019.2 - 0.0 - - - - - - -
28/01:00pm 14.6 WSW 15 22 1019.2 - 0.0 - - - - - - -
28/12:30pm 14.3 WSW 15 21 1019.2 - 0.0 - - - - - - -
28/12:00pm 14.0 WSW 15 22 1019.7 - 0.0 - - - - - - -
28/11:30am 13.2 WSW 15 21 1020.0 - 0.0 - - - - - - -
28/11:00am 12.7 WSW 17 23 1020.2 - 0.0 - - - - - - -
28/10:40am 12.5 WSW 17 27 1020.5 - 0.0 - - - - - - -
28/10:30am 12.5 SW 17 25 1020.6 - 0.0 - - - - - - -
28/10:04am 11.6 WSW 16 26 1020.5 - 0.0 - - - - - - -
28/10:00am 11.8 WSW 16 23 1020.6 - 0.0 - - - - - - -
28/09:30am 11.1 WSW 19 27 1020.5 - 0.0 - - - - - - -
28/09:00am 10.6 WSW 16 26 1020.4 - 0.0 - - - - - - -
28/08:34am 10.2 WSW 19 29 1020.1 - 0.0 - - - - - - -
28/08:30am 10.1 WSW 20 29 1020.0 - 0.0 - - - - - - -
28/08:15am 9.9 SW 19 29 1020.0 - 0.0 - - - - - - -
28/08:00am 9.8 SW 18 25 1019.9 - 0.0 - - - - - - -
28/07:32am 9.6 SW 16 26 1019.7 - 0.0 - - - - - - -
28/07:30am 9.5 SW 17 26 1019.5 - 0.0 - - - - - - -
28/07:00am 8.9 SW 17 27 1019.1 - 0.0 - - - - - - -
28/06:56am 9.0 SW 17 27 1019.1 - 0.0 - - - - - - -
28/06:30am 8.5 SW 12 17 1019.1 - 0.0 - - - - - - -
28/06:00am 8.8 SW 11 16 1019.0 - 0.0 - - - - - - -
28/05:30am 8.9 SW 11 21 1018.7 - 0.0 - - - - - - -
28/05:00am 8.8 SW 9 15 1018.3 - 0.0 - - - - - - -
28/04:30am 8.9 SW 14 22 1017.8 - 0.0 - - - - - - -
28/04:00am 8.9 SW 8 13 1018.3 - 0.0 - - - - - - -
28/03:30am 9.0 SW 13 20 1017.9 - 0.0 - - - - - - -
28/03:00am 9.4 WSW 21 28 1017.4 - 0.0 - - - - - - -
28/02:30am 9.4 WSW 21 31 1017.1 - 0.0 - - - - - - -
28/02:12am 9.7 WSW 18 28 1017.3 - 0.0 - - - - - - -
28/02:00am 9.5 WSW 13 22 1017.8 - 0.0 - - - - - - -
28/01:30am 9.8 WSW 17 21 1017.7 - 0.0 - - - - - - -
28/01:00am 10.0 SW 20 28 1017.4 - 0.0 - - - - - - -
28/12:38am 10.1 SW 17 27 1017.4 - 0.0 - - - - - - -
28/12:30am 10.2 SW 16 24 1017.6 - 0.0 - - - - - - -
28/12:00am 10.4 SW 13 21 1018.0 - 0.0 - - - - - - -
 
Date/Time
EST
Temp
°C
Wind Pressure Rain since
9am
mm
Weather Cloud Vis
km
Sea
Height
m
Swell
Dir  Spd
kts
Gust
kts
hPa Trend Height
m
Period
s
Dir
27/11:30pm 10.5 SW 12 18 1018.1 - 0.0 - - - - - - -
27/11:00pm 10.6 SW 11 14 1018.3 - 0.0 - - - - - - -
27/10:30pm 10.9 SW 11 17 1018.3 - 0.0 - - - - - - -
27/10:00pm 11.3 SW 15 22 1018.2 - 0.0 - - - - - - -
27/09:30pm 11.4 SW 14 23 1018.0 - 0.0 - - - - - - -
27/09:00pm 11.8 SW 15 21 1017.6 - 0.0 - - - - - - -
27/08:35pm 12.1 SW 17 27 1017.4 - 0.0 - - - - - - -
27/08:30pm 12.1 SW 16 22 1017.5 - 0.0 - - - - - - -
27/08:00pm 12.5 SW 12 18 1017.1 - 0.0 - - - - - - -
27/07:30pm 12.7 SW 15 24 1016.8 - 0.0 - - - - - - -
27/07:00pm 13.1 WSW 16 24 1016.4 - 0.0 - - - - - - -
27/06:43pm 13.5 WSW 17 27 1016.3 - 0.0 - - - - - - -
27/06:30pm 13.9 WSW 19 27 1016.2 - 0.0 - - - - - - -
27/06:24pm 13.8 WSW 15 27 1016.1 - 0.0 - - - - - - -
27/06:00pm 14.3 WSW 11 23 1016.0 - 0.0 - - - - - - -
27/05:30pm 14.8 WSW 15 21 1015.5 - 0.0 - - - - - - -
27/05:10pm 15.0 WSW 16 26 1015.0 - 0.0 - - - - - - -
27/05:00pm 15.2 WSW 16 25 1014.7 - 0.0 - - - - - - -
27/04:32pm 15.7 WSW 16 26 1014.5 - 0.0 - - - - - - -
27/04:30pm 15.8 WSW 16 23 1014.5 - 0.0 - - - - - - -
27/04:00pm 16.9 WSW 12 18 1014.6 - 0.0 - - - - - - -
27/03:30pm 17.4 WSW 13 19 1014.2 - 0.0 - - - - - - -
27/03:00pm 17.6 W 15 22 1014.0 - 0.0 - - - - - - -
27/02:30pm 16.4 WSW 13 20 1014.0 - 0.0 - - - - - - -
27/02:00pm 16.9 WSW 10 20 1014.0 - 0.0 - - - - - - -
27/01:30pm 16.2 W 11 16 1014.1 - 0.0 - - - - - - -
27/01:00pm 16.8 W 12 18 1014.3 - 0.0 - - - - - - -
27/12:30pm 16.8 W 9 13 1014.7 - 0.0 - - - - - - -
27/12:00pm 16.9 WSW 10 14 1015.2 - 0.0 - - - - - - -
27/11:30am 16.7 WSW 6 10 1015.2 - 0.0 - - - - - - -
27/11:00am 16.3 W 8 11 1016.0 - 0.0 - - - - - - -
27/10:30am 16.4 W 10 14 1016.5 - 0.0 - - - - - - -
27/10:00am 16.0 WNW 11 16 1016.6 - 0.0 - - - - - - -
27/09:30am 16.0 WNW 10 15 1016.9 - 0.0 - - - - - - -
27/09:00am 15.9 WNW 11 14 1017.1 - 0.0 - - - - - - -
27/08:30am 15.5 WNW 12 16 1017.1 - 0.0 - - - - - - -
27/08:00am 15.2 WNW 15 20 1017.1 - 0.0 - - - - - - -
27/07:30am 15.8 W 13 18 1016.8 - 0.0 - - - - - - -
27/07:00am 16.1 W 11 15 1016.2 - 0.0 - - - - - - -
27/06:30am 16.8 WNW 11 15 1015.6 - 0.0 - - - - - - -
27/06:00am 17.7 WNW 14 19 1015.7 - 0.0 - - - - - - -
27/05:30am 17.6 WNW 12 19 1015.4 - 0.0 - - - - - - -
27/05:00am 17.5 WNW 11 15 1014.9 - 0.0 - - - - - - -
27/04:30am 17.8 NW 12 16 1015.1 - 0.0 - - - - - - -
27/04:00am 18.1 NW 13 18 1014.6 - 0.0 - - - - - - -
27/03:30am 18.1 NNW 13 18 1014.6 - 0.0 - - - - - - -
27/03:00am 17.5 NNW 11 15 1014.5 - 0.0 - - - - - - -
27/02:30am 17.2 N 9 12 1014.7 - 0.0 - - - - - - -
27/02:00am 16.3 NW 7 10 1015.2 - 0.0 - - - - - - -
27/01:30am 15.7 W 9 10 1016.0 - 0.0 - - - - - - -
27/01:00am 16.4 W 9 11 1016.3 - 0.0 - - - - - - -
27/12:30am 17.0 WNW 10 13 1016.5 - 0.0 - - - - - - -
27/12:00am 17.9 N 13 19 1016.7 - 0.0 - - - - - - -
 
Date/Time
EST
Temp
°C
Wind Pressure Rain since
9am
mm
Weather Cloud Vis
km
Sea
Height
m
Swell
Dir  Spd
kts
Gust
kts
hPa Trend Height
m
Period
s
Dir
26/11:30pm 17.9 N 15 19 1016.6 - 0.0 - - - - - - -
26/11:00pm 17.7 N 11 16 1017.0 - 0.0 - - - - - - -

Other Formats:

Comma delimited format used in spreadsheet applications
http://www.bom.gov.au/fwo/IDQ60701/IDQ60701.94594.axf

JavaScript Object Notation format (JSON) in row-major order
http://www.bom.gov.au/fwo/IDQ60701/IDQ60701.94594.json